createdAt,value
2023-03-21T00:02:00.203Z,101062.59
2023-03-21T00:04:40.942Z,101064.59
2023-03-21T00:07:15.747Z,101061.53
2023-03-21T00:09:46.772Z,101056.44
2023-03-21T00:12:17.684Z,101060.13
2023-03-21T00:14:48.524Z,101056.41
2023-03-21T00:17:23.391Z,101057.88
2023-03-21T00:19:56.144Z,101062.31
2023-03-21T00:22:31.094Z,101058.50
2023-03-21T00:25:02.493Z,101054.34
2023-03-21T00:27:53.266Z,101061.72
2023-03-21T00:30:25.378Z,101063.53
2023-03-21T00:33:03.566Z,101077.69
2023-03-21T00:35:58.499Z,101062.25
2023-03-21T00:38:28.515Z,101064.88
2023-03-21T00:41:04.672Z,101064.13
2023-03-21T00:43:35.773Z,101063.28
2023-03-21T00:46:07.268Z,101067.94
2023-03-21T00:48:38.238Z,101079.19
2023-03-21T00:51:26.903Z,101065.59
2023-03-21T00:53:59.281Z,101064.84
2023-03-21T00:56:32.536Z,101062.81
2023-03-21T00:59:03.600Z,101064.13
2023-03-21T01:01:35.543Z,101065.06
2023-03-21T01:04:14.537Z,101063.66
2023-03-21T01:06:46.304Z,101061.34
2023-03-21T01:09:20.453Z,101065.59
2023-03-21T01:11:52.593Z,101058.41
2023-03-21T01:14:25.589Z,101060.75
2023-03-21T01:16:56.978Z,101062.03
2023-03-21T01:19:50.759Z,101046.47
2023-03-21T01:22:20.708Z,101046.34
2023-03-21T01:24:58.360Z,101049.72
2023-03-21T01:27:31.788Z,101051.00
2023-03-21T01:30:11.315Z,101048.59
2023-03-21T01:32:48.649Z,101052.59
2023-03-21T01:35:20.327Z,101046.59
2023-03-21T01:37:52.609Z,101050.97
2023-03-21T01:40:28.978Z,101055.81
2023-03-21T01:43:36.179Z,101057.94
2023-03-21T01:46:30.199Z,101055.88
2023-03-21T01:49:28.657Z,101062.41
2023-03-21T01:52:23.457Z,101050.56
2023-03-21T01:54:58.574Z,101056.59
2023-03-21T01:57:43.792Z,101048.78
2023-03-21T02:00:23.724Z,101042.81
2023-03-21T02:03:15.158Z,101046.97
2023-03-21T02:06:04.695Z,101041.63
2023-03-21T02:08:40.423Z,101036.47
2023-03-21T02:11:16.841Z,101050.91
2023-03-21T02:13:50.230Z,101038.22
2023-03-21T02:16:48.417Z,101035.78
2023-03-21T02:19:41.691Z,101028.31
2023-03-21T02:22:45.430Z,101029.16
2023-03-21T02:25:55.568Z,101009.84
2023-03-21T02:28:31.750Z,101005.06
2023-03-21T02:31:38.082Z,100991.75
2023-03-21T02:34:42.532Z,100996.63
2023-03-21T02:37:18.519Z,100997.66
2023-03-21T02:39:57.409Z,100991.38
2023-03-21T02:42:32.746Z,100993.06
2023-03-21T02:45:27.614Z,101002.69
2023-03-21T02:48:10.071Z,100996.47
2023-03-21T02:50:53.568Z,100997.91
2023-03-21T02:53:27.626Z,101001.25
2023-03-21T02:56:00.980Z,100990.03
2023-03-21T02:58:35.646Z,100990.44
2023-03-21T03:01:10.289Z,100983.78
2023-03-21T03:03:48.575Z,100973.38
2023-03-21T03:06:46.295Z,100968.00
2023-03-21T03:09:30.424Z,100960.50
2023-03-21T03:12:17.510Z,100959.06
2023-03-21T03:15:03.373Z,100956.41
2023-03-21T03:17:40.544Z,100958.72
2023-03-21T03:20:46.364Z,100965.63
2023-03-21T03:23:21.323Z,100964.78
2023-03-21T03:25:57.350Z,100953.94
2023-03-21T03:28:34.912Z,100951.88
2023-03-21T03:31:10.478Z,100939.97
2023-03-21T03:33:48.943Z,100934.75
2023-03-21T03:36:33.693Z,100945.19
2023-03-21T03:39:11.784Z,100934.75
2023-03-21T03:42:10.186Z,100932.47
2023-03-21T03:44:44.497Z,100930.59
2023-03-21T03:47:34.881Z,100930.19
2023-03-21T03:50:33.631Z,100922.28
2023-03-21T03:53:18.060Z,100923.94
2023-03-21T03:55:53.708Z,100916.44
2023-03-21T03:58:39.420Z,100923.94
2023-03-21T04:01:18.748Z,100910.78
2023-03-21T04:04:01.062Z,100907.66
2023-03-21T04:06:42.415Z,100903.06
2023-03-21T04:09:20.992Z,100904.72
2023-03-21T04:11:55.854Z,100885.31
2023-03-21T04:14:35.649Z,100893.63
2023-03-21T04:17:10.025Z,100886.75
2023-03-21T04:19:41.073Z,100889.66
2023-03-21T04:22:13.630Z,100874.41
2023-03-21T04:24:46.476Z,100871.94
2023-03-21T04:27:17.204Z,100867.13
2023-03-21T04:30:08.497Z,100857.06
2023-03-21T04:32:57.887Z,100848.06
2023-03-21T04:35:30.222Z,100848.25
2023-03-21T04:38:01.474Z,100851.59
2023-03-21T04:40:40.932Z,100845.69
2023-03-21T04:43:11.865Z,100841.72
2023-03-21T04:45:43.917Z,100841.03
2023-03-21T04:48:15.447Z,100833.50
2023-03-21T04:50:47.585Z,100825.16
2023-03-21T04:53:18.672Z,100814.06
2023-03-21T04:55:53.450Z,100811.09
2023-03-21T04:58:26.113Z,100804.13
2023-03-21T05:00:58.265Z,100799.31
2023-03-21T05:03:35.300Z,100790.28
2023-03-21T05:06:07.963Z,100783.19
2023-03-21T05:08:39.073Z,100776.50
2023-03-21T05:11:12.176Z,100770.66
2023-03-21T05:13:47.291Z,100758.06
2023-03-21T05:16:18.886Z,100756.78
2023-03-21T05:18:52.375Z,100755.53
2023-03-21T05:21:24.771Z,100752.75
2023-03-21T05:23:55.484Z,100750.03
2023-03-21T05:26:27.302Z,100750.41
2023-03-21T05:29:15.969Z,100748.72
2023-03-21T05:31:48.969Z,100740.72
2023-03-21T05:34:20.013Z,100732.50
2023-03-21T05:36:52.327Z,100737.28
2023-03-21T05:39:24.589Z,100732.59
2023-03-21T05:42:04.796Z,100726.69
2023-03-21T05:44:36.313Z,100724.50
2023-03-21T05:47:10.443Z,100720.66
2023-03-21T05:49:48.143Z,100715.56
2023-03-21T05:52:19.972Z,100712.06
2023-03-21T05:54:52.576Z,100704.97
2023-03-21T05:57:29.710Z,100702.38
2023-03-21T06:00:04.091Z,100702.69
2023-03-21T06:02:46.593Z,100696.78
2023-03-21T06:05:40.251Z,100690.94
2023-03-21T06:08:21.330Z,100697.97
2023-03-21T06:10:52.104Z,100690.88
2023-03-21T06:13:23.361Z,100685.69
2023-03-21T06:15:57.460Z,100683.59
2023-03-21T06:18:29.922Z,100686.91
2023-03-21T06:21:20.128Z,100683.47
2023-03-21T06:23:55.096Z,100679.53
2023-03-21T06:26:27.400Z,100671.53
2023-03-21T06:28:58.935Z,100664.78
2023-03-21T06:31:30.132Z,100665.50
2023-03-21T06:34:06.272Z,100659.94
2023-03-21T06:36:37.623Z,100667.03
2023-03-21T06:39:09.701Z,100661.66
2023-03-21T06:41:43.420Z,100656.88
2023-03-21T06:44:14.555Z,100654.28
2023-03-21T06:46:55.254Z,100654.53
2023-03-21T06:49:27.903Z,100654.97
2023-03-21T06:52:01.987Z,100657.66
2023-03-21T06:54:32.989Z,100653.72
2023-03-21T06:57:08.678Z,100649.06
2023-03-21T06:59:42.461Z,100649.38
2023-03-21T07:02:17.696Z,100645.56
2023-03-21T07:05:01.380Z,100649.19
2023-03-21T07:07:33.838Z,100648.19
2023-03-21T07:10:07.059Z,100649.94
2023-03-21T07:12:47.816Z,100649.94
2023-03-21T07:15:23.797Z,100637.25
2023-03-21T07:17:55.580Z,100643.50
2023-03-21T07:20:27.826Z,100638.16
2023-03-21T07:22:59.276Z,100633.75
2023-03-21T07:25:31.091Z,100645.09
2023-03-21T07:28:02.924Z,100646.75
2023-03-21T07:30:34.279Z,100631.34
2023-03-21T07:33:05.833Z,100646.00
2023-03-21T07:35:40.854Z,100637.69
2023-03-21T07:38:12.485Z,100627.72
2023-03-21T07:40:43.378Z,100635.28
2023-03-21T07:45:48.933Z,100642.84
2023-03-21T07:48:20.397Z,100634.53
2023-03-21T07:50:51.936Z,100633.91
2023-03-21T07:53:23.579Z,100635.38
2023-03-21T07:55:57.443Z,100636.44
2023-03-21T07:58:32.548Z,100632.97
2023-03-21T08:01:03.967Z,100637.94
2023-03-21T08:03:34.901Z,100632.34
2023-03-21T08:06:06.274Z,100644.13
2023-03-21T08:08:37.904Z,100646.22
2023-03-21T08:11:09.947Z,100648.59
2023-03-21T08:13:41.250Z,100649.03
2023-03-21T08:16:12.369Z,100650.75
2023-03-21T08:18:43.797Z,100648.50
2023-03-21T08:21:15.123Z,100645.78
2023-03-21T08:23:46.347Z,100646.22
2023-03-21T08:26:19.651Z,100647.72
2023-03-21T08:28:50.848Z,100655.06
2023-03-21T08:31:22.861Z,100656.56
2023-03-21T08:33:55.691Z,100648.25
2023-03-21T08:36:30.510Z,100656.81
2023-03-21T08:39:06.388Z,100651.22
2023-03-21T08:41:39.166Z,100646.88
2023-03-21T08:44:12.850Z,100649.22
2023-03-21T08:46:46.096Z,100646.31
2023-03-21T08:49:17.325Z,100652.38
2023-03-21T08:51:48.294Z,100656.94
2023-03-21T08:54:24.087Z,100649.47
2023-03-21T08:56:54.886Z,100660.78
2023-03-21T08:59:25.799Z,100668.31
2023-03-21T09:01:57.139Z,100659.94
2023-03-21T09:04:30.785Z,100663.47
2023-03-21T09:07:06.397Z,100659.59
2023-03-21T09:09:38.417Z,100670.44
2023-03-21T09:12:11.017Z,100666.91
2023-03-21T09:14:42.152Z,100665.28
2023-03-21T09:17:17.386Z,100671.75
2023-03-21T09:19:50.793Z,100675.50
2023-03-21T09:22:22.680Z,100672.84
2023-03-21T09:24:54.729Z,100683.47
2023-03-21T09:27:34.414Z,100681.19
2023-03-21T09:30:07.134Z,100681.41
2023-03-21T09:32:39.705Z,100679.75
2023-03-21T09:35:13.700Z,100688.94
2023-03-21T09:37:44.881Z,100698.34
2023-03-21T09:40:41.883Z,100689.38
2023-03-21T09:43:34.421Z,100683.72
2023-03-21T09:46:29.146Z,100687.91
2023-03-21T09:49:08.949Z,100695.50
2023-03-21T09:51:44.834Z,100693.56
2023-03-21T09:54:29.109Z,100691.09
2023-03-21T09:57:12.752Z,100696.53
2023-03-21T09:59:47.388Z,100696.53
2023-03-21T10:02:33.194Z,100700.72
2023-03-21T10:05:15.826Z,100712.00
2023-03-21T10:08:28.255Z,100708.22
2023-03-21T10:11:04.977Z,100711.78
2023-03-21T10:13:40.826Z,100720.75
2023-03-21T10:16:16.978Z,100728.28
2023-03-21T10:18:50.615Z,100726.59
2023-03-21T10:21:56.478Z,100732.44
2023-03-21T10:24:26.677Z,100728.88
2023-03-21T10:26:58.510Z,100733.03
2023-03-21T10:29:45.081Z,100746.00
2023-03-21T10:32:18.376Z,100747.00
2023-03-21T10:34:59.219Z,100752.66
2023-03-21T10:37:30.987Z,100749.09
2023-03-21T10:40:01.680Z,100752.44
2023-03-21T10:42:34.936Z,100753.66
2023-03-21T10:45:17.559Z,100759.94
2023-03-21T10:47:51.165Z,100768.69
2023-03-21T10:50:26.857Z,100770.38
2023-03-21T10:53:01.794Z,100774.13
2023-03-21T10:55:37.116Z,100778.91
2023-03-21T10:58:19.739Z,100772.44
2023-03-21T11:00:51.467Z,100781.00
2023-03-21T11:03:32.320Z,100784.75
2023-03-21T11:06:28.721Z,100786.41
2023-03-21T11:09:24.204Z,100794.97
2023-03-21T11:12:20.027Z,100797.03
2023-03-21T11:14:53.124Z,100797.22
2023-03-21T11:17:28.916Z,100796.81
2023-03-21T11:20:11.739Z,100794.53
2023-03-21T11:22:44.500Z,100801.63
2023-03-21T11:25:38.726Z,100798.91
2023-03-21T11:28:23.350Z,100806.59
2023-03-21T11:30:59.150Z,100804.09
2023-03-21T11:33:37.483Z,100808.25
2023-03-21T11:36:23.015Z,100818.28
2023-03-21T11:39:05.333Z,100819.50
2023-03-21T11:41:36.594Z,100821.38
2023-03-21T11:44:07.779Z,100819.72
2023-03-21T11:46:43.057Z,100830.78
2023-03-21T11:49:13.839Z,100829.94
2023-03-21T11:51:47.264Z,100828.31
2023-03-21T11:54:47.311Z,100834.97
2023-03-21T11:57:32.300Z,100838.72
2023-03-21T12:00:16.768Z,100839.13
2023-03-21T12:02:57.354Z,100847.91
2023-03-21T12:05:45.403Z,100840.81
2023-03-21T12:08:43.068Z,100845.38
2023-03-21T12:11:41.313Z,100851.25
2023-03-21T12:14:53.482Z,100852.91
2023-03-21T12:17:34.697Z,100866.22
2023-03-21T12:20:39.292Z,100857.88
2023-03-21T12:23:49.111Z,100859.16
2023-03-21T12:26:34.597Z,100859.56
2023-03-21T12:29:28.291Z,100855.81
2023-03-21T12:32:40.712Z,100860.38
2023-03-21T12:35:26.105Z,100866.41
2023-03-21T12:38:20.447Z,100865.78
2023-03-21T12:41:07.116Z,100866.59
2023-03-21T12:43:45.093Z,100869.13
2023-03-21T12:46:50.515Z,100871.19
2023-03-21T12:49:30.956Z,100874.09
2023-03-21T12:52:28.449Z,100879.50
2023-03-21T12:55:20.831Z,100887.00
2023-03-21T12:58:04.095Z,100898.22
2023-03-21T13:00:56.289Z,100895.94
2023-03-21T13:03:39.853Z,100899.09
2023-03-21T13:06:20.450Z,100909.84
2023-03-21T13:09:28.610Z,100902.63
2023-03-21T13:12:25.667Z,100908.41
2023-03-21T13:15:24.650Z,100909.94
2023-03-21T13:18:26.634Z,100915.28
2023-03-21T13:21:00.222Z,100911.31
2023-03-21T13:23:40.181Z,100916.09
2023-03-21T13:26:13.378Z,100922.34
2023-03-21T13:28:45.014Z,100920.69
2023-03-21T13:31:26.645Z,100919.63
2023-03-21T13:34:01.099Z,100925.25
2023-03-21T13:36:34.433Z,100930.66
2023-03-21T13:39:08.024Z,100931.06
2023-03-21T13:41:40.709Z,100927.53
2023-03-21T13:44:23.552Z,100932.50
2023-03-21T13:47:04.516Z,100928.13
2023-03-21T13:49:36.604Z,100933.53
2023-03-21T13:52:13.339Z,100941.03
2023-03-21T13:54:55.468Z,100942.91
2023-03-21T13:57:31.321Z,100941.03
2023-03-21T14:00:40.574Z,100935.19
2023-03-21T14:03:15.540Z,100950.56
2023-03-21T14:05:52.368Z,100940.13
2023-03-21T14:08:36.501Z,100944.53
2023-03-21T14:11:11.546Z,100943.25
2023-03-21T14:13:51.265Z,100937.19
2023-03-21T14:16:24.651Z,100928.84
2023-03-21T14:18:59.010Z,100932.56
2023-03-21T14:21:33.446Z,100944.66
2023-03-21T14:24:13.451Z,100936.47
2023-03-21T14:27:02.941Z,100940.03
2023-03-21T14:29:35.871Z,100940.59
2023-03-21T14:32:07.809Z,100940.34
2023-03-21T14:34:39.269Z,100947.22
2023-03-21T14:37:12.936Z,100939.91
2023-03-21T14:39:43.823Z,100938.69
2023-03-21T14:42:15.892Z,100935.72
2023-03-21T14:44:55.558Z,100937.41
2023-03-21T14:47:33.122Z,100937.16
2023-03-21T14:50:07.766Z,100938.19
2023-03-21T14:52:39.618Z,100937.34
2023-03-21T14:55:17.832Z,100938.38
2023-03-21T14:57:50.350Z,100932.13
2023-03-21T15:00:32.589Z,100928.19
2023-03-21T15:03:04.505Z,100926.09
2023-03-21T15:05:38.499Z,100920.03
2023-03-21T15:08:11.351Z,100919.00
2023-03-21T15:10:44.689Z,100933.09
2023-03-21T15:13:21.201Z,100920.81
2023-03-21T15:15:57.879Z,100920.44
2023-03-21T15:18:41.675Z,100915.41
2023-03-21T15:21:42.930Z,100913.97
2023-03-21T15:24:20.826Z,100921.84
2023-03-21T15:26:52.055Z,100911.41
2023-03-21T15:29:35.402Z,100914.78
2023-03-21T15:32:18.503Z,100922.25
2023-03-21T15:34:49.052Z,100920.97
2023-03-21T15:37:25.682Z,100917.63
2023-03-21T15:40:10.832Z,100919.28
2023-03-21T15:42:43.145Z,100923.03
2023-03-21T15:45:27.712Z,100918.81
2023-03-21T15:48:28.876Z,100923.03
2023-03-21T15:51:03.418Z,100926.50
2023-03-21T15:53:37.152Z,100923.81
2023-03-21T15:56:17.054Z,100919.44
2023-03-21T15:58:50.625Z,100916.72
2023-03-21T16:01:23.520Z,100923.34
2023-03-21T16:03:59.735Z,100927.94
2023-03-21T16:06:35.335Z,100922.69
2023-03-21T16:09:11.855Z,100924.72
2023-03-21T16:11:56.855Z,100921.88
2023-03-21T16:14:29.337Z,100927.00
2023-03-21T16:17:00.367Z,100921.97
2023-03-21T16:19:31.800Z,100916.56
2023-03-21T16:22:02.768Z,100916.09
2023-03-21T16:24:34.142Z,100914.25
2023-03-21T16:27:05.054Z,100911.94
2023-03-21T16:29:35.953Z,100912.31
2023-03-21T16:32:11.740Z,100910.22
2023-03-21T16:34:43.765Z,100905.63
2023-03-21T16:37:18.145Z,100911.41
2023-03-21T16:39:50.109Z,100908.72
2023-03-21T16:42:20.662Z,100903.91
2023-03-21T16:44:51.209Z,100910.78
2023-03-21T16:47:24.740Z,100913.84
2023-03-21T16:49:56.651Z,100898.22
2023-03-21T16:52:28.297Z,100900.94
2023-03-21T16:54:59.500Z,100898.41
2023-03-21T16:57:30.860Z,100899.44
2023-03-21T17:00:04.463Z,100893.38
2023-03-21T17:02:35.686Z,100890.44
2023-03-21T17:05:08.183Z,100888.56
2023-03-21T17:07:44.999Z,100887.06
2023-03-21T17:10:27.021Z,100881.50
2023-03-21T17:13:00.439Z,100880.38
2023-03-21T17:15:33.936Z,100878.25
2023-03-21T17:18:06.170Z,100870.13
2023-03-21T17:20:39.017Z,100877.38
2023-03-21T17:23:11.277Z,100859.88
2023-03-21T17:25:42.227Z,100866.31
2023-03-21T17:28:12.919Z,100853.19
2023-03-21T17:30:44.358Z,100851.50
2023-03-21T17:33:16.356Z,100858.59
2023-03-21T17:35:49.475Z,100849.66
2023-03-21T17:38:20.233Z,100847.78
2023-03-21T17:40:51.223Z,100855.25
2023-03-21T17:43:24.009Z,100850.22
2023-03-21T17:45:55.385Z,100847.34
2023-03-21T17:48:26.220Z,100845.69
2023-03-21T17:50:57.596Z,100836.94
2023-03-21T17:53:28.422Z,100843.53
2023-03-21T17:55:59.081Z,100834.78
2023-03-21T17:58:31.412Z,100831.25
2023-03-21T18:01:02.299Z,100827.72
2023-03-21T18:03:41.180Z,100828.94
2023-03-21T18:06:17.415Z,100825.81
2023-03-21T18:08:49.197Z,100823.09
2023-03-21T18:11:21.389Z,100814.72
2023-03-21T18:13:59.424Z,100815.13
2023-03-21T18:16:42.587Z,100809.72
2023-03-21T18:19:14.284Z,100810.75
2023-03-21T18:21:45.808Z,100809.25
2023-03-21T18:24:17.317Z,100804.03
2023-03-21T18:26:48.475Z,100792.59
2023-03-21T18:32:12.324Z,100803.56
2023-03-21T18:34:45.390Z,100803.78
2023-03-21T18:37:16.016Z,100803.13
2023-03-21T18:39:47.469Z,100798.75
2023-03-21T18:42:20.227Z,100791.03
2023-03-21T18:44:55.000Z,100795.41
2023-03-21T18:47:28.877Z,100797.44
2023-03-21T18:50:14.145Z,100798.25
2023-03-21T18:52:45.315Z,100799.47
2023-03-21T18:55:16.133Z,100795.75
2023-03-21T18:57:46.877Z,100800.50
2023-03-21T19:00:22.439Z,100804.41
2023-03-21T19:03:04.279Z,100804.41
2023-03-21T19:05:41.936Z,100798.19
2023-03-21T19:08:13.152Z,100802.94
2023-03-21T19:10:44.425Z,100798.56
2023-03-21T19:13:15.019Z,100805.00
2023-03-21T19:15:48.953Z,100801.00
2023-03-21T19:18:49.503Z,100794.75
2023-03-21T19:21:11.368Z,100797.66
2023-03-21T19:24:16.394Z,100802.19
2023-03-21T19:26:32.892Z,100801.38
2023-03-21T19:29:03.568Z,100798.84
2023-03-21T19:31:34.363Z,100796.72
2023-03-21T19:34:05.751Z,100791.72
2023-03-21T19:36:36.837Z,100803.53
2023-03-21T19:39:07.763Z,100790.03
2023-03-21T19:41:40.481Z,100790.03
2023-03-21T19:44:13.901Z,100788.34
2023-03-21T19:46:44.634Z,100790.41
2023-03-21T19:49:22.111Z,100789.56
2023-03-21T19:51:55.880Z,100786.41
2023-03-21T19:54:38.927Z,100781.66
2023-03-21T19:57:10.749Z,100782.84
2023-03-21T19:59:42.928Z,100784.94
2023-03-21T20:02:34.636Z,100786.13
2023-03-21T20:05:06.255Z,100783.63
2023-03-21T20:07:37.291Z,100790.22
2023-03-21T20:10:11.875Z,100788.56
2023-03-21T20:12:43.246Z,100783.16
2023-03-21T20:15:20.873Z,100783.53
2023-03-21T20:17:52.374Z,100782.50
2023-03-21T20:20:24.855Z,100785.59
2023-03-21T20:23:07.733Z,100798.03
2023-03-21T20:25:44.054Z,100794.69
2023-03-21T20:28:23.834Z,100810.06
2023-03-21T20:31:01.601Z,100813.28
2023-03-21T20:33:32.879Z,100812.94
2023-03-21T20:38:59.294Z,100819.69
2023-03-21T20:41:30.423Z,100815.31
2023-03-21T20:46:57.948Z,100810.66
2023-03-21T20:49:29.099Z,100816.91
2023-03-21T20:52:51.833Z,100814.38
2023-03-21T20:54:51.066Z,100806.84
2023-03-21T20:57:22.202Z,100808.06
2023-03-21T20:59:53.332Z,100802.66
2023-03-21T21:02:24.593Z,100799.50
2023-03-21T21:05:28.667Z,100803.88
2023-03-21T21:07:49.851Z,100801.34
2023-03-21T21:10:22.325Z,100803.41
2023-03-21T21:12:54.710Z,100799.38
2023-03-21T21:15:25.565Z,100805.81
2023-03-21T21:18:08.081Z,100809.16
2023-03-21T21:20:39.745Z,100812.88
2023-03-21T21:23:13.928Z,100821.97
2023-03-21T21:25:46.766Z,100822.34
2023-03-21T21:28:19.700Z,100821.69
2023-03-21T21:30:54.184Z,100828.09
2023-03-21T21:33:26.226Z,100827.44
2023-03-21T21:35:57.558Z,100831.00
2023-03-21T21:38:28.712Z,100835.53
2023-03-21T21:41:01.219Z,100839.25
2023-03-21T21:43:35.723Z,100840.28
2023-03-21T21:46:09.287Z,100837.56
2023-03-21T21:48:42.034Z,100845.19
2023-03-21T21:51:12.853Z,100846.22
2023-03-21T21:53:43.875Z,100855.34
2023-03-21T21:56:15.165Z,100854.47
2023-03-21T21:58:55.515Z,100856.16
2023-03-21T22:01:27.104Z,100862.28
2023-03-21T22:03:59.193Z,100862.28
2023-03-21T22:06:30.157Z,100866.00
2023-03-21T22:09:01.962Z,100873.06
2023-03-21T22:11:32.732Z,100879.81
2023-03-21T22:14:04.246Z,100877.97
2023-03-21T22:16:34.703Z,100898.84
2023-03-21T22:19:05.640Z,100903.41
2023-03-21T22:21:39.577Z,100905.44
2023-03-21T22:24:10.889Z,100906.47
2023-03-21T22:26:41.894Z,100905.63
2023-03-21T22:29:12.943Z,100905.16
2023-03-21T22:31:45.724Z,100911.19
2023-03-21T22:34:16.492Z,100910.91
2023-03-21T22:36:47.937Z,100909.88
2023-03-21T22:39:27.115Z,100910.03
2023-03-21T22:42:05.670Z,100914.59
2023-03-21T22:44:36.771Z,100919.13
2023-03-21T22:47:10.290Z,100909.56
2023-03-21T22:49:43.476Z,100915.78
2023-03-21T22:52:14.934Z,100914.97
2023-03-21T22:54:46.817Z,100916.63
2023-03-21T22:57:18.726Z,100922.03
2023-03-21T22:59:50.686Z,100918.69
2023-03-21T23:02:22.047Z,100915.78
2023-03-21T23:04:53.543Z,100920.00
2023-03-21T23:07:24.259Z,100920.81
2023-03-21T23:09:55.108Z,100925.84
2023-03-21T23:12:26.231Z,100923.34
2023-03-21T23:14:57.406Z,100927.00
2023-03-21T23:17:28.157Z,100930.06
2023-03-21T23:19:58.996Z,100926.34
2023-03-21T23:22:36.844Z,100936.13
2023-03-21T23:25:09.933Z,100938.44
2023-03-21T23:27:40.579Z,100934.75
2023-03-21T23:30:11.886Z,100937.09
2023-03-21T23:32:42.940Z,100927.34
2023-03-21T23:35:13.573Z,100928.16
2023-03-21T23:37:50.948Z,100928.16
2023-03-21T23:40:22.800Z,100931.16
2023-03-21T23:42:53.743Z,100928.28
2023-03-21T23:45:24.675Z,100933.31
2023-03-21T23:47:56.184Z,100932.28
2023-03-21T23:50:27.646Z,100937.69
2023-03-21T23:52:58.318Z,100945.03
2023-03-21T23:55:29.125Z,100947.59
2023-03-21T23:58:03.146Z,100953.06
